sensor_id;sensor_type;location;lat;lon;timestamp;P1;durP1;ratioP1;P2;durP2;ratioP2
53519;SDS011;39397;53.204;5.778;2024-03-02T00:01:23;2.58;;;1.40;;
53519;SDS011;39397;53.204;5.778;2024-03-02T00:03:49;3.45;;;1.50;;
53519;SDS011;39397;53.204;5.778;2024-03-02T00:06:14;3.22;;;1.60;;
53519;SDS011;39397;53.204;5.778;2024-03-02T00:08:44;3.15;;;1.45;;
53519;SDS011;39397;53.204;5.778;2024-03-02T00:11:13;3.72;;;1.70;;
53519;SDS011;39397;53.204;5.778;2024-03-02T00:13:40;3.78;;;2.13;;
53519;SDS011;39397;53.204;5.778;2024-03-02T00:16:06;5.05;;;1.60;;
53519;SDS011;39397;53.204;5.778;2024-03-02T00:18:32;4.07;;;1.80;;
53519;SDS011;39397;53.204;5.778;2024-03-02T00:20:59;13.32;;;2.15;;
53519;SDS011;39397;53.204;5.778;2024-03-02T00:23:29;3.95;;;2.00;;
53519;SDS011;39397;53.204;5.778;2024-03-02T00:25:56;2.95;;;1.52;;
53519;SDS011;39397;53.204;5.778;2024-03-02T00:28:35;3.25;;;1.40;;
53519;SDS011;39397;53.204;5.778;2024-03-02T00:36:08;3.95;;;1.85;;
53519;SDS011;39397;53.204;5.778;2024-03-02T00:38:40;4.93;;;2.25;;
53519;SDS011;39397;53.204;5.778;2024-03-02T00:41:07;4.85;;;1.83;;
53519;SDS011;39397;53.204;5.778;2024-03-02T00:46:29;3.55;;;1.85;;
53519;SDS011;39397;53.204;5.778;2024-03-02T00:48:59;5.90;;;1.95;;
53519;SDS011;39397;53.204;5.778;2024-03-02T00:51:33;5.72;;;2.30;;
53519;SDS011;39397;53.204;5.778;2024-03-02T00:54:01;4.15;;;1.85;;
53519;SDS011;39397;53.204;5.778;2024-03-02T00:56:32;4.85;;;2.40;;
53519;SDS011;39397;53.204;5.778;2024-03-02T00:58:59;4.75;;;2.17;;
53519;SDS011;39397;53.204;5.778;2024-03-02T01:01:25;3.67;;;1.77;;
53519;SDS011;39397;53.204;5.778;2024-03-02T01:03:51;4.57;;;2.08;;
53519;SDS011;39397;53.204;5.778;2024-03-02T01:06:17;5.63;;;2.00;;
53519;SDS011;39397;53.204;5.778;2024-03-02T01:08:43;4.57;;;1.88;;
53519;SDS011;39397;53.204;5.778;2024-03-02T01:11:09;4.32;;;1.95;;
53519;SDS011;39397;53.204;5.778;2024-03-02T01:13:35;3.75;;;1.85;;
53519;SDS011;39397;53.204;5.778;2024-03-02T01:16:01;5.30;;;1.85;;
53519;SDS011;39397;53.204;5.778;2024-03-02T01:18:27;3.92;;;1.90;;
53519;SDS011;39397;53.204;5.778;2024-03-02T01:20:53;5.28;;;2.10;;
53519;SDS011;39397;53.204;5.778;2024-03-02T01:23:22;3.78;;;1.70;;
53519;SDS011;39397;53.204;5.778;2024-03-02T01:25:49;3.97;;;2.10;;
53519;SDS011;39397;53.204;5.778;2024-03-02T01:28:15;4.88;;;2.55;;
53519;SDS011;39397;53.204;5.778;2024-03-02T01:30:44;4.80;;;1.60;;
53519;SDS011;39397;53.204;5.778;2024-03-02T01:33:09;3.55;;;1.48;;
53519;SDS011;39397;53.204;5.778;2024-03-02T01:35:43;3.33;;;1.43;;
53519;SDS011;39397;53.204;5.778;2024-03-02T01:38:09;2.97;;;1.60;;
53519;SDS011;39397;53.204;5.778;2024-03-02T01:40:35;4.55;;;1.90;;
53519;SDS011;39397;53.204;5.778;2024-03-02T01:43:03;5.32;;;1.52;;
53519;SDS011;39397;53.204;5.778;2024-03-02T01:45:29;3.42;;;1.30;;
53519;SDS011;39397;53.204;5.778;2024-03-02T01:47:55;3.85;;;1.60;;
53519;SDS011;39397;53.204;5.778;2024-03-02T01:50:25;3.20;;;1.50;;
53519;SDS011;39397;53.204;5.778;2024-03-02T01:52:56;4.85;;;1.50;;
53519;SDS011;39397;53.204;5.778;2024-03-02T01:55:22;5.80;;;1.45;;
53519;SDS011;39397;53.204;5.778;2024-03-02T01:57:48;2.47;;;1.50;;
53519;SDS011;39397;53.204;5.778;2024-03-02T02:00:16;2.97;;;1.40;;
53519;SDS011;39397;53.204;5.778;2024-03-02T02:02:42;2.83;;;1.30;;
53519;SDS011;39397;53.204;5.778;2024-03-02T02:05:09;3.70;;;1.58;;
53519;SDS011;39397;53.204;5.778;2024-03-02T02:07:42;3.15;;;1.48;;
53519;SDS011;39397;53.204;5.778;2024-03-02T02:10:10;4.30;;;1.60;;
53519;SDS011;39397;53.204;5.778;2024-03-02T02:12:36;2.50;;;1.30;;
53519;SDS011;39397;53.204;5.778;2024-03-02T02:15:25;3.72;;;1.35;;
53519;SDS011;39397;53.204;5.778;2024-03-02T02:17:53;2.72;;;1.40;;
53519;SDS011;39397;53.204;5.778;2024-03-02T02:20:22;3.45;;;1.38;;
53519;SDS011;39397;53.204;5.778;2024-03-02T02:22:58;3.65;;;1.40;;
53519;SDS011;39397;53.204;5.778;2024-03-02T02:25:25;3.42;;;1.58;;
53519;SDS011;39397;53.204;5.778;2024-03-02T02:27:52;4.90;;;1.42;;
53519;SDS011;39397;53.204;5.778;2024-03-02T02:30:18;4.10;;;1.20;;
53519;SDS011;39397;53.204;5.778;2024-03-02T02:32:46;2.28;;;1.20;;
53519;SDS011;39397;53.204;5.778;2024-03-02T02:35:11;5.00;;;1.92;;
53519;SDS011;39397;53.204;5.778;2024-03-02T02:37:38;5.22;;;1.95;;
53519;SDS011;39397;53.204;5.778;2024-03-02T02:40:04;2.42;;;1.17;;
53519;SDS011;39397;53.204;5.778;2024-03-02T02:42:30;3.13;;;1.60;;
53519;SDS011;39397;53.204;5.778;2024-03-02T02:44:56;3.30;;;1.45;;
53519;SDS011;39397;53.204;5.778;2024-03-02T02:47:21;3.92;;;1.30;;
53519;SDS011;39397;53.204;5.778;2024-03-02T02:49:47;3.25;;;1.30;;
53519;SDS011;39397;53.204;5.778;2024-03-02T02:52:13;4.05;;;1.23;;
53519;SDS011;39397;53.204;5.778;2024-03-02T02:54:39;4.25;;;1.40;;
53519;SDS011;39397;53.204;5.778;2024-03-02T02:57:09;3.05;;;1.30;;
53519;SDS011;39397;53.204;5.778;2024-03-02T02:59:37;3.22;;;1.15;;
53519;SDS011;39397;53.204;5.778;2024-03-02T03:02:02;2.17;;;1.10;;
53519;SDS011;39397;53.204;5.778;2024-03-02T03:04:29;3.45;;;1.38;;
53519;SDS011;39397;53.204;5.778;2024-03-02T03:06:54;4.70;;;1.38;;
53519;SDS011;39397;53.204;5.778;2024-03-02T03:09:20;5.65;;;1.50;;
53519;SDS011;39397;53.204;5.778;2024-03-02T03:11:48;3.83;;;1.40;;
53519;SDS011;39397;53.204;5.778;2024-03-02T03:14:14;5.32;;;1.35;;
53519;SDS011;39397;53.204;5.778;2024-03-02T03:16:40;3.60;;;1.20;;
53519;SDS011;39397;53.204;5.778;2024-03-02T03:19:05;2.90;;;1.40;;
53519;SDS011;39397;53.204;5.778;2024-03-02T03:21:31;5.65;;;1.35;;
53519;SDS011;39397;53.204;5.778;2024-03-02T03:23:57;4.45;;;1.38;;
53519;SDS011;39397;53.204;5.778;2024-03-02T03:26:23;3.17;;;1.38;;
53519;SDS011;39397;53.204;5.778;2024-03-02T03:28:48;4.30;;;1.70;;
53519;SDS011;39397;53.204;5.778;2024-03-02T03:31:14;2.97;;;1.48;;
53519;SDS011;39397;53.204;5.778;2024-03-02T03:33:40;2.65;;;1.20;;
53519;SDS011;39397;53.204;5.778;2024-03-02T03:36:06;2.30;;;1.20;;
53519;SDS011;39397;53.204;5.778;2024-03-02T03:38:32;3.17;;;1.20;;
53519;SDS011;39397;53.204;5.778;2024-03-02T03:41:00;4.60;;;1.27;;
53519;SDS011;39397;53.204;5.778;2024-03-02T03:43:26;3.58;;;1.10;;
53519;SDS011;39397;53.204;5.778;2024-03-02T03:45:51;3.00;;;1.15;;
53519;SDS011;39397;53.204;5.778;2024-03-02T03:48:17;3.58;;;1.33;;
53519;SDS011;39397;53.204;5.778;2024-03-02T03:50:44;2.97;;;0.93;;
53519;SDS011;39397;53.204;5.778;2024-03-02T03:53:10;3.67;;;1.00;;
53519;SDS011;39397;53.204;5.778;2024-03-02T03:55:35;3.80;;;0.90;;
53519;SDS011;39397;53.204;5.778;2024-03-02T03:58:04;1.90;;;0.50;;
53519;SDS011;39397;53.204;5.778;2024-03-02T04:00:30;1.77;;;0.93;;
53519;SDS011;39397;53.204;5.778;2024-03-02T04:02:56;3.10;;;0.95;;
53519;SDS011;39397;53.204;5.778;2024-03-02T04:05:22;2.63;;;0.75;;
53519;SDS011;39397;53.204;5.778;2024-03-02T04:07:48;1.20;;;0.60;;
53519;SDS011;39397;53.204;5.778;2024-03-02T04:10:13;1.15;;;0.52;;
53519;SDS011;39397;53.204;5.778;2024-03-02T04:12:41;1.02;;;0.50;;
53519;SDS011;39397;53.204;5.778;2024-03-02T04:15:07;1.40;;;0.35;;
53519;SDS011;39397;53.204;5.778;2024-03-02T04:17:33;0.40;;;0.20;;
53519;SDS011;39397;53.204;5.778;2024-03-02T04:20:00;0.30;;;0.20;;
53519;SDS011;39397;53.204;5.778;2024-03-02T04:22:27;0.45;;;0.25;;
53519;SDS011;39397;53.204;5.778;2024-03-02T04:24:53;0.90;;;0.30;;
53519;SDS011;39397;53.204;5.778;2024-03-02T04:27:19;1.15;;;0.40;;
53519;SDS011;39397;53.204;5.778;2024-03-02T04:29:45;1.65;;;0.30;;
53519;SDS011;39397;53.204;5.778;2024-03-02T04:32:11;0.85;;;0.30;;
53519;SDS011;39397;53.204;5.778;2024-03-02T04:34:36;1.10;;;0.50;;
53519;SDS011;39397;53.204;5.778;2024-03-02T04:37:05;1.40;;;0.30;;
53519;SDS011;39397;53.204;5.778;2024-03-02T04:39:30;0.47;;;0.30;;
53519;SDS011;39397;53.204;5.778;2024-03-02T04:41:56;0.40;;;0.30;;
53519;SDS011;39397;53.204;5.778;2024-03-02T04:44:23;1.05;;;0.32;;
53519;SDS011;39397;53.204;5.778;2024-03-02T04:46:52;1.75;;;0.30;;
53519;SDS011;39397;53.204;5.778;2024-03-02T04:49:17;0.82;;;0.30;;
53519;SDS011;39397;53.204;5.778;2024-03-02T04:51:43;0.38;;;0.30;;
53519;SDS011;39397;53.204;5.778;2024-03-02T04:54:09;0.43;;;0.30;;
53519;SDS011;39397;53.204;5.778;2024-03-02T04:56:39;0.75;;;0.40;;
53519;SDS011;39397;53.204;5.778;2024-03-02T04:59:17;1.13;;;0.40;;
53519;SDS011;39397;53.204;5.778;2024-03-02T05:01:44;2.15;;;0.40;;
53519;SDS011;39397;53.204;5.778;2024-03-02T05:04:10;2.05;;;0.32;;
53519;SDS011;39397;53.204;5.778;2024-03-02T05:06:38;0.82;;;0.50;;
53519;SDS011;39397;53.204;5.778;2024-03-02T05:09:07;2.35;;;0.60;;
53519;SDS011;39397;53.204;5.778;2024-03-02T05:11:34;0.57;;;0.45;;
53519;SDS011;39397;53.204;5.778;2024-03-02T05:14:20;1.10;;;0.32;;
53519;SDS011;39397;53.204;5.778;2024-03-02T05:16:45;1.92;;;0.38;;
53519;SDS011;39397;53.204;5.778;2024-03-02T05:19:11;1.17;;;0.50;;
53519;SDS011;39397;53.204;5.778;2024-03-02T05:21:37;1.52;;;0.52;;
53519;SDS011;39397;53.204;5.778;2024-03-02T05:24:03;2.30;;;0.50;;
53519;SDS011;39397;53.204;5.778;2024-03-02T05:26:29;1.02;;;0.60;;
53519;SDS011;39397;53.204;5.778;2024-03-02T05:28:54;0.68;;;0.30;;
53519;SDS011;39397;53.204;5.778;2024-03-02T05:31:20;1.33;;;0.50;;
53519;SDS011;39397;53.204;5.778;2024-03-02T05:33:46;1.35;;;0.47;;
53519;SDS011;39397;53.204;5.778;2024-03-02T05:36:12;1.70;;;0.50;;
53519;SDS011;39397;53.204;5.778;2024-03-02T05:38:38;1.35;;;0.50;;
53519;SDS011;39397;53.204;5.778;2024-03-02T05:41:03;2.70;;;0.80;;
53519;SDS011;39397;53.204;5.778;2024-03-02T05:43:29;5.72;;;1.63;;
53519;SDS011;39397;53.204;5.778;2024-03-02T05:45:55;2.05;;;1.00;;
53519;SDS011;39397;53.204;5.778;2024-03-02T05:48:21;2.75;;;0.80;;
53519;SDS011;39397;53.204;5.778;2024-03-02T05:50:49;1.40;;;0.32;;
53519;SDS011;39397;53.204;5.778;2024-03-02T05:53:15;1.83;;;0.60;;
53519;SDS011;39397;53.204;5.778;2024-03-02T05:55:41;1.65;;;0.68;;
53519;SDS011;39397;53.204;5.778;2024-03-02T05:58:06;2.10;;;0.60;;
53519;SDS011;39397;53.204;5.778;2024-03-02T06:00:51;1.63;;;0.57;;
53519;SDS011;39397;53.204;5.778;2024-03-02T06:03:16;0.90;;;0.50;;
53519;SDS011;39397;53.204;5.778;2024-03-02T06:05:42;3.10;;;0.80;;
53519;SDS011;39397;53.204;5.778;2024-03-02T06:08:08;2.75;;;1.63;;
53519;SDS011;39397;53.204;5.778;2024-03-02T06:10:33;2.65;;;0.50;;
53519;SDS011;39397;53.204;5.778;2024-03-02T06:12:59;3.08;;;0.60;;
53519;SDS011;39397;53.204;5.778;2024-03-02T06:15:25;1.25;;;0.52;;
53519;SDS011;39397;53.204;5.778;2024-03-02T06:17:51;1.75;;;0.55;;
53519;SDS011;39397;53.204;5.778;2024-03-02T06:20:16;1.83;;;0.60;;
53519;SDS011;39397;53.204;5.778;2024-03-02T06:22:42;1.85;;;0.50;;
53519;SDS011;39397;53.204;5.778;2024-03-02T06:25:08;3.17;;;0.50;;
53519;SDS011;39397;53.204;5.778;2024-03-02T06:28:11;1.88;;;0.68;;
53519;SDS011;39397;53.204;5.778;2024-03-02T06:30:42;2.90;;;0.80;;
53519;SDS011;39397;53.204;5.778;2024-03-02T06:33:09;1.60;;;0.40;;
53519;SDS011;39397;53.204;5.778;2024-03-02T06:35:35;2.05;;;0.57;;
53519;SDS011;39397;53.204;5.778;2024-03-02T06:38:03;3.10;;;0.63;;
53519;SDS011;39397;53.204;5.778;2024-03-02T06:40:29;2.58;;;0.63;;
53519;SDS011;39397;53.204;5.778;2024-03-02T06:42:54;2.20;;;0.82;;
53519;SDS011;39397;53.204;5.778;2024-03-02T06:45:20;3.13;;;0.80;;
53519;SDS011;39397;53.204;5.778;2024-03-02T06:47:46;1.55;;;0.93;;
53519;SDS011;39397;53.204;5.778;2024-03-02T06:50:12;2.03;;;0.60;;
53519;SDS011;39397;53.204;5.778;2024-03-02T06:52:47;3.88;;;1.20;;
53519;SDS011;39397;53.204;5.778;2024-03-02T06:55:13;6.85;;;1.45;;
53519;SDS011;39397;53.204;5.778;2024-03-02T06:57:38;2.45;;;0.80;;
53519;SDS011;39397;53.204;5.778;2024-03-02T07:00:04;2.15;;;0.80;;
53519;SDS011;39397;53.204;5.778;2024-03-02T07:02:33;2.33;;;0.60;;
53519;SDS011;39397;53.204;5.778;2024-03-02T07:05:00;2.80;;;1.00;;
53519;SDS011;39397;53.204;5.778;2024-03-02T07:07:25;2.97;;;0.95;;
53519;SDS011;39397;53.204;5.778;2024-03-02T07:09:51;1.33;;;0.70;;
53519;SDS011;39397;53.204;5.778;2024-03-02T07:12:23;1.50;;;0.80;;
53519;SDS011;39397;53.204;5.778;2024-03-02T07:14:49;2.03;;;0.77;;
53519;SDS011;39397;53.204;5.778;2024-03-02T07:17:36;1.95;;;1.40;;
53519;SDS011;39397;53.204;5.778;2024-03-02T07:20:02;2.95;;;1.20;;
53519;SDS011;39397;53.204;5.778;2024-03-02T07:22:32;3.75;;;2.25;;
53519;SDS011;39397;53.204;5.778;2024-03-02T07:24:58;3.00;;;0.85;;
53519;SDS011;39397;53.204;5.778;2024-03-02T07:27:24;1.73;;;1.10;;
53519;SDS011;39397;53.204;5.778;2024-03-02T07:29:52;2.25;;;1.10;;
53519;SDS011;39397;53.204;5.778;2024-03-02T07:32:18;3.13;;;1.00;;
53519;SDS011;39397;53.204;5.778;2024-03-02T07:34:44;2.85;;;1.05;;
53519;SDS011;39397;53.204;5.778;2024-03-02T07:37:10;1.88;;;1.20;;
53519;SDS011;39397;53.204;5.778;2024-03-02T07:39:35;2.85;;;1.10;;
53519;SDS011;39397;53.204;5.778;2024-03-02T07:42:01;1.30;;;0.90;;
53519;SDS011;39397;53.204;5.778;2024-03-02T07:44:29;2.45;;;1.08;;
53519;SDS011;39397;53.204;5.778;2024-03-02T07:46:55;2.60;;;1.27;;
53519;SDS011;39397;53.204;5.778;2024-03-02T07:49:20;3.08;;;1.42;;
53519;SDS011;39397;53.204;5.778;2024-03-02T07:51:46;2.17;;;1.38;;
53519;SDS011;39397;53.204;5.778;2024-03-02T07:54:12;3.90;;;2.22;;
53519;SDS011;39397;53.204;5.778;2024-03-02T07:56:37;2.60;;;1.45;;
53519;SDS011;39397;53.204;5.778;2024-03-02T07:59:03;3.53;;;1.20;;
53519;SDS011;39397;53.204;5.778;2024-03-02T08:01:30;4.30;;;1.35;;
53519;SDS011;39397;53.204;5.778;2024-03-02T08:03:57;3.05;;;1.27;;
53519;SDS011;39397;53.204;5.778;2024-03-02T08:06:24;1.95;;;1.00;;
53519;SDS011;39397;53.204;5.778;2024-03-02T08:09:01;2.63;;;1.08;;
53519;SDS011;39397;53.204;5.778;2024-03-02T08:11:29;2.22;;;1.10;;
53519;SDS011;39397;53.204;5.778;2024-03-02T08:13:56;2.92;;;0.88;;
53519;SDS011;39397;53.204;5.778;2024-03-02T08:16:25;3.67;;;0.90;;
53519;SDS011;39397;53.204;5.778;2024-03-02T08:18:51;2.33;;;1.00;;
53519;SDS011;39397;53.204;5.778;2024-03-02T08:21:17;1.88;;;0.80;;
53519;SDS011;39397;53.204;5.778;2024-03-02T08:23:43;6.57;;;1.45;;
53519;SDS011;39397;53.204;5.778;2024-03-02T08:26:10;2.25;;;0.80;;
53519;SDS011;39397;53.204;5.778;2024-03-02T08:28:36;2.03;;;0.80;;
53519;SDS011;39397;53.204;5.778;2024-03-02T08:31:03;1.50;;;0.60;;
53519;SDS011;39397;53.204;5.778;2024-03-02T08:33:29;2.20;;;0.80;;
53519;SDS011;39397;53.204;5.778;2024-03-02T08:35:55;1.63;;;0.55;;
53519;SDS011;39397;53.204;5.778;2024-03-02T08:38:21;4.10;;;0.95;;
53519;SDS011;39397;53.204;5.778;2024-03-02T08:40:47;2.92;;;0.77;;
53519;SDS011;39397;53.204;5.778;2024-03-02T08:43:12;3.90;;;0.63;;
53519;SDS011;39397;53.204;5.778;2024-03-02T08:45:39;2.15;;;0.57;;
53519;SDS011;39397;53.204;5.778;2024-03-02T08:48:06;3.75;;;0.82;;
53519;SDS011;39397;53.204;5.778;2024-03-02T08:50:35;3.70;;;0.75;;
53519;SDS011;39397;53.204;5.778;2024-03-02T08:53:02;3.38;;;0.90;;
53519;SDS011;39397;53.204;5.778;2024-03-02T08:55:28;2.22;;;0.60;;
53519;SDS011;39397;53.204;5.778;2024-03-02T08:57:54;1.45;;;0.50;;
53519;SDS011;39397;53.204;5.778;2024-03-02T09:00:20;3.80;;;0.70;;
53519;SDS011;39397;53.204;5.778;2024-03-02T09:02:46;2.70;;;0.50;;
53519;SDS011;39397;53.204;5.778;2024-03-02T09:05:12;2.42;;;0.70;;
53519;SDS011;39397;53.204;5.778;2024-03-02T09:07:38;3.20;;;0.65;;
53519;SDS011;39397;53.204;5.778;2024-03-02T09:10:04;1.80;;;0.57;;
53519;SDS011;39397;53.204;5.778;2024-03-02T09:12:31;2.05;;;0.60;;
53519;SDS011;39397;53.204;5.778;2024-03-02T09:14:57;3.42;;;0.75;;
53519;SDS011;39397;53.204;5.778;2024-03-02T09:17:23;3.20;;;0.77;;
53519;SDS011;39397;53.204;5.778;2024-03-02T09:19:49;2.65;;;0.60;;
53519;SDS011;39397;53.204;5.778;2024-03-02T09:22:18;3.33;;;0.63;;
53519;SDS011;39397;53.204;5.778;2024-03-02T09:24:44;2.67;;;0.70;;
53519;SDS011;39397;53.204;5.778;2024-03-02T09:27:10;1.25;;;0.57;;
53519;SDS011;39397;53.204;5.778;2024-03-02T09:29:36;2.50;;;0.85;;
53519;SDS011;39397;53.204;5.778;2024-03-02T09:32:02;2.33;;;0.50;;
53519;SDS011;39397;53.204;5.778;2024-03-02T09:34:28;1.92;;;0.47;;
53519;SDS011;39397;53.204;5.778;2024-03-02T09:36:53;6.47;;;2.22;;
53519;SDS011;39397;53.204;5.778;2024-03-02T09:39:19;2.05;;;0.60;;
53519;SDS011;39397;53.204;5.778;2024-03-02T09:41:45;3.05;;;1.08;;
53519;SDS011;39397;53.204;5.778;2024-03-02T09:44:11;2.13;;;0.65;;
53519;SDS011;39397;53.204;5.778;2024-03-02T09:46:37;3.22;;;0.75;;
53519;SDS011;39397;53.204;5.778;2024-03-02T09:49:03;5.03;;;0.60;;
53519;SDS011;39397;53.204;5.778;2024-03-02T09:51:29;4.90;;;0.55;;
53519;SDS011;39397;53.204;5.778;2024-03-02T09:53:56;2.95;;;0.70;;
53519;SDS011;39397;53.204;5.778;2024-03-02T09:56:22;4.18;;;0.57;;
53519;SDS011;39397;53.204;5.778;2024-03-02T09:58:48;2.33;;;0.70;;
53519;SDS011;39397;53.204;5.778;2024-03-02T10:01:13;3.10;;;0.80;;
53519;SDS011;39397;53.204;5.778;2024-03-02T10:03:39;3.92;;;0.57;;
53519;SDS011;39397;53.204;5.778;2024-03-02T10:06:28;2.00;;;0.80;;
53519;SDS011;39397;53.204;5.778;2024-03-02T10:08:54;3.15;;;0.57;;
53519;SDS011;39397;53.204;5.778;2024-03-02T10:11:30;1.85;;;0.50;;
53519;SDS011;39397;53.204;5.778;2024-03-02T10:14:04;1.77;;;0.70;;
53519;SDS011;39397;53.204;5.778;2024-03-02T10:16:37;4.18;;;0.68;;
53519;SDS011;39397;53.204;5.778;2024-03-02T10:19:17;2.67;;;0.50;;
53519;SDS011;39397;53.204;5.778;2024-03-02T10:21:45;2.63;;;0.50;;
53519;SDS011;39397;53.204;5.778;2024-03-02T10:24:11;2.40;;;0.60;;
53519;SDS011;39397;53.204;5.778;2024-03-02T10:26:38;1.52;;;0.50;;
53519;SDS011;39397;53.204;5.778;2024-03-02T10:29:03;1.25;;;0.40;;
53519;SDS011;39397;53.204;5.778;2024-03-02T10:31:30;4.43;;;0.57;;
53519;SDS011;39397;53.204;5.778;2024-03-02T10:33:55;3.20;;;0.80;;
53519;SDS011;39397;53.204;5.778;2024-03-02T10:36:22;3.60;;;0.80;;
53519;SDS011;39397;53.204;5.778;2024-03-02T10:38:48;3.03;;;0.60;;
53519;SDS011;39397;53.204;5.778;2024-03-02T10:41:24;5.22;;;0.85;;
53519;SDS011;39397;53.204;5.778;2024-03-02T10:43:55;4.47;;;0.90;;
53519;SDS011;39397;53.204;5.778;2024-03-02T10:46:27;2.67;;;0.63;;
53519;SDS011;39397;53.204;5.778;2024-03-02T10:48:55;2.67;;;0.80;;
53519;SDS011;39397;53.204;5.778;2024-03-02T10:51:24;4.30;;;0.80;;
53519;SDS011;39397;53.204;5.778;2024-03-02T10:53:51;3.05;;;0.63;;
53519;SDS011;39397;53.204;5.778;2024-03-02T10:56:21;4.63;;;0.80;;
53519;SDS011;39397;53.204;5.778;2024-03-02T10:58:55;4.20;;;0.70;;
53519;SDS011;39397;53.204;5.778;2024-03-02T11:01:39;9.35;;;4.20;;
53519;SDS011;39397;53.204;5.778;2024-03-02T11:04:09;4.70;;;1.38;;
53519;SDS011;39397;53.204;5.778;2024-03-02T11:06:36;3.90;;;0.77;;
53519;SDS011;39397;53.204;5.778;2024-03-02T11:09:07;3.88;;;0.90;;
53519;SDS011;39397;53.204;5.778;2024-03-02T11:11:36;2.17;;;0.70;;
53519;SDS011;39397;53.204;5.778;2024-03-02T11:14:05;1.55;;;0.40;;
53519;SDS011;39397;53.204;5.778;2024-03-02T11:16:37;3.75;;;0.68;;
53519;SDS011;39397;53.204;5.778;2024-03-02T11:19:05;2.47;;;0.60;;
53519;SDS011;39397;53.204;5.778;2024-03-02T11:21:36;1.17;;;0.40;;
53519;SDS011;39397;53.204;5.778;2024-03-02T11:26:52;3.78;;;0.70;;
53519;SDS011;39397;53.204;5.778;2024-03-02T11:32:06;4.80;;;0.50;;
53519;SDS011;39397;53.204;5.778;2024-03-02T11:34:50;2.58;;;0.63;;
53519;SDS011;39397;53.204;5.778;2024-03-02T11:37:17;3.35;;;0.63;;
53519;SDS011;39397;53.204;5.778;2024-03-02T11:39:44;2.53;;;0.77;;
53519;SDS011;39397;53.204;5.778;2024-03-02T11:42:13;1.98;;;0.52;;
53519;SDS011;39397;53.204;5.778;2024-03-02T11:44:44;1.88;;;0.47;;
53519;SDS011;39397;53.204;5.778;2024-03-02T11:47:12;5.47;;;0.68;;
53519;SDS011;39397;53.204;5.778;2024-03-02T11:49:46;2.72;;;0.50;;
53519;SDS011;39397;53.204;5.778;2024-03-02T11:52:15;2.20;;;0.43;;
53519;SDS011;39397;53.204;5.778;2024-03-02T11:54:43;1.77;;;0.60;;
53519;SDS011;39397;53.204;5.778;2024-03-02T11:57:19;4.17;;;0.63;;
53519;SDS011;39397;53.204;5.778;2024-03-02T11:59:47;4.15;;;0.73;;
53519;SDS011;39397;53.204;5.778;2024-03-02T12:02:16;3.35;;;0.70;;
53519;SDS011;39397;53.204;5.778;2024-03-02T12:04:46;3.42;;;0.60;;
53519;SDS011;39397;53.204;5.778;2024-03-02T12:07:18;2.92;;;1.10;;
53519;SDS011;39397;53.204;5.778;2024-03-02T12:09:48;4.85;;;1.15;;
53519;SDS011;39397;53.204;5.778;2024-03-02T12:12:24;3.17;;;0.60;;
53519;SDS011;39397;53.204;5.778;2024-03-02T12:14:50;5.22;;;0.73;;
53519;SDS011;39397;53.204;5.778;2024-03-02T12:17:17;2.67;;;0.57;;
53519;SDS011;39397;53.204;5.778;2024-03-02T12:19:43;2.58;;;0.70;;
53519;SDS011;39397;53.204;5.778;2024-03-02T12:22:09;2.42;;;0.73;;
53519;SDS011;39397;53.204;5.778;2024-03-02T12:24:35;2.53;;;0.70;;
53519;SDS011;39397;53.204;5.778;2024-03-02T12:27:02;2.78;;;0.70;;
53519;SDS011;39397;53.204;5.778;2024-03-02T12:29:29;2.85;;;0.68;;
53519;SDS011;39397;53.204;5.778;2024-03-02T12:31:55;2.13;;;0.52;;
53519;SDS011;39397;53.204;5.778;2024-03-02T12:34:22;3.72;;;0.82;;
53519;SDS011;39397;53.204;5.778;2024-03-02T12:36:48;5.38;;;0.88;;
53519;SDS011;39397;53.204;5.778;2024-03-02T12:39:17;3.83;;;0.75;;
53519;SDS011;39397;53.204;5.778;2024-03-02T12:41:43;4.40;;;0.90;;
53519;SDS011;39397;53.204;5.778;2024-03-02T12:44:10;2.50;;;0.60;;
53519;SDS011;39397;53.204;5.778;2024-03-02T12:46:35;4.18;;;0.80;;
53519;SDS011;39397;53.204;5.778;2024-03-02T12:49:07;3.22;;;0.80;;
53519;SDS011;39397;53.204;5.778;2024-03-02T12:51:35;3.45;;;1.10;;
53519;SDS011;39397;53.204;5.778;2024-03-02T12:54:02;2.17;;;0.50;;
53519;SDS011;39397;53.204;5.778;2024-03-02T12:56:30;3.03;;;0.75;;
53519;SDS011;39397;53.204;5.778;2024-03-02T12:58:56;3.42;;;0.90;;
53519;SDS011;39397;53.204;5.778;2024-03-02T13:01:22;4.47;;;0.88;;
53519;SDS011;39397;53.204;5.778;2024-03-02T13:03:49;4.25;;;0.80;;
53519;SDS011;39397;53.204;5.778;2024-03-02T13:06:18;4.75;;;0.98;;
53519;SDS011;39397;53.204;5.778;2024-03-02T13:08:45;4.57;;;1.25;;
53519;SDS011;39397;53.204;5.778;2024-03-02T13:11:12;2.97;;;0.75;;
53519;SDS011;39397;53.204;5.778;2024-03-02T13:13:38;5.38;;;1.35;;
53519;SDS011;39397;53.204;5.778;2024-03-02T13:16:11;5.47;;;0.95;;
53519;SDS011;39397;53.204;5.778;2024-03-02T13:18:41;4.45;;;1.27;;
53519;SDS011;39397;53.204;5.778;2024-03-02T13:21:09;7.30;;;2.33;;
53519;SDS011;39397;53.204;5.778;2024-03-02T13:23:34;3.80;;;0.90;;
53519;SDS011;39397;53.204;5.778;2024-03-02T13:26:00;3.85;;;1.27;;
53519;SDS011;39397;53.204;5.778;2024-03-02T13:28:26;5.15;;;1.10;;
53519;SDS011;39397;53.204;5.778;2024-03-02T13:30:53;3.22;;;0.80;;
53519;SDS011;39397;53.204;5.778;2024-03-02T13:33:18;3.10;;;0.75;;
53519;SDS011;39397;53.204;5.778;2024-03-02T13:35:50;3.22;;;0.70;;
53519;SDS011;39397;53.204;5.778;2024-03-02T13:38:19;3.83;;;0.95;;
53519;SDS011;39397;53.204;5.778;2024-03-02T13:40:48;2.22;;;0.60;;
53519;SDS011;39397;53.204;5.778;2024-03-02T13:43:17;2.42;;;0.55;;
53519;SDS011;39397;53.204;5.778;2024-03-02T13:45:48;5.35;;;1.15;;
53519;SDS011;39397;53.204;5.778;2024-03-02T13:48:14;4.95;;;1.70;;
53519;SDS011;39397;53.204;5.778;2024-03-02T13:50:40;3.90;;;1.30;;
53519;SDS011;39397;53.204;5.778;2024-03-02T13:53:07;3.38;;;0.98;;
53519;SDS011;39397;53.204;5.778;2024-03-02T13:55:34;4.03;;;0.85;;
53519;SDS011;39397;53.204;5.778;2024-03-02T13:57:59;3.92;;;0.80;;
53519;SDS011;39397;53.204;5.778;2024-03-02T14:00:25;3.47;;;0.90;;
53519;SDS011;39397;53.204;5.778;2024-03-02T14:02:51;2.75;;;0.70;;
53519;SDS011;39397;53.204;5.778;2024-03-02T14:05:17;3.30;;;0.75;;
53519;SDS011;39397;53.204;5.778;2024-03-02T14:07:44;3.30;;;1.00;;
53519;SDS011;39397;53.204;5.778;2024-03-02T14:10:10;3.63;;;0.60;;
53519;SDS011;39397;53.204;5.778;2024-03-02T14:12:36;1.10;;;0.52;;
53519;SDS011;39397;53.204;5.778;2024-03-02T14:15:02;4.63;;;0.80;;
53519;SDS011;39397;53.204;5.778;2024-03-02T14:17:29;2.25;;;0.73;;
53519;SDS011;39397;53.204;5.778;2024-03-02T14:19:57;3.40;;;0.90;;
53519;SDS011;39397;53.204;5.778;2024-03-02T14:22:24;5.57;;;0.85;;
53519;SDS011;39397;53.204;5.778;2024-03-02T14:24:50;3.33;;;0.90;;
53519;SDS011;39397;53.204;5.778;2024-03-02T14:27:15;3.97;;;0.85;;
53519;SDS011;39397;53.204;5.778;2024-03-02T14:29:45;3.10;;;0.65;;
53519;SDS011;39397;53.204;5.778;2024-03-02T14:32:10;2.78;;;0.52;;
53519;SDS011;39397;53.204;5.778;2024-03-02T14:34:36;2.85;;;0.57;;
53519;SDS011;39397;53.204;5.778;2024-03-02T14:37:03;2.95;;;0.65;;
53519;SDS011;39397;53.204;5.778;2024-03-02T14:39:29;3.65;;;0.80;;
53519;SDS011;39397;53.204;5.778;2024-03-02T14:41:59;2.53;;;0.70;;
53519;SDS011;39397;53.204;5.778;2024-03-02T14:44:26;2.38;;;0.60;;
53519;SDS011;39397;53.204;5.778;2024-03-02T14:46:51;2.22;;;0.50;;
53519;SDS011;39397;53.204;5.778;2024-03-02T14:49:17;2.88;;;0.43;;
53519;SDS011;39397;53.204;5.778;2024-03-02T14:51:43;4.45;;;0.80;;
53519;SDS011;39397;53.204;5.778;2024-03-02T14:54:09;2.08;;;0.70;;
53519;SDS011;39397;53.204;5.778;2024-03-02T14:56:35;5.32;;;1.15;;
53519;SDS011;39397;53.204;5.778;2024-03-02T14:59:00;3.03;;;0.63;;
53519;SDS011;39397;53.204;5.778;2024-03-02T15:01:26;3.13;;;0.75;;
53519;SDS011;39397;53.204;5.778;2024-03-02T15:03:52;1.30;;;0.60;;